Time;durP1;ratioP1;P1;durP2;ratioP2;P2;SDS_P1;SDS_P2;PMS_P1;PMS_P2;Temp;Humidity;BMP_temperature;BMP_pressure;BME280_temperature;BME280_humidity;BME280_pressure;Samples;Min_cycle;Max_cycle;Signal;HPM_P1;HPM_P2
2022/08/19 00:00:25;;;;;;;35.15;31.73;;;19.80;99.90;;;;;;5042339;28;20176;-77
2022/08/19 00:02:51;;;;;;;55.95;43.58;;;19.70;99.90;;;;;;5042736;28;20177;-76
2022/08/19 00:05:17;;;;;;;58.38;42.80;;;19.70;99.90;;;;;;5036585;28;20185;-77
2022/08/19 00:07:43;;;;;;;72.88;51.53;;;19.80;99.90;;;;;;5037950;28;20207;-76
2022/08/19 00:10:11;;;;;;;48.80;41.63;;;19.80;99.90;;;;;;5042877;28;20172;-77
2022/08/19 00:12:37;;;;;;;63.28;50.83;;;19.80;99.90;;;;;;5031468;28;20565;-78
2022/08/19 00:15:06;;;;;;;50.00;40.80;;;19.80;99.90;;;;;;5027848;28;20263;-78
2022/08/19 00:17:32;;;;;;;40.05;35.80;;;19.80;99.90;;;;;;5030737;28;20188;-77
2022/08/19 00:19:57;;;;;;;36.53;33.03;;;19.70;99.90;;;;;;5036856;28;20514;-77
2022/08/19 00:22:23;;;;;;;36.72;33.20;;;19.60;99.90;;;;;;5034704;28;20683;-78
2022/08/19 00:24:49;;;;;;;34.40;31.23;;;19.50;99.90;;;;;;5043271;28;20547;-77
2022/08/19 00:27:14;;;;;;;37.05;33.15;;;19.50;99.90;;;;;;5045727;28;20196;-77
2022/08/19 00:29:40;;;;;;;59.65;49.08;;;19.50;99.90;;;;;;5041476;28;20702;-77
2022/08/19 00:32:06;;;;;;;43.45;39.13;;;19.70;99.90;;;;;;5033592;28;20228;-76
2022/08/19 00:34:32;;;;;;;47.35;42.50;;;19.60;99.90;;;;;;5042606;28;20176;-77
2022/08/19 00:36:58;;;;;;;67.43;53.00;;;19.50;99.90;;;;;;5024875;28;20204;-76
2022/08/19 00:39:23;;;;;;;48.08;42.92;;;19.50;99.90;;;;;;5025217;28;20183;-75
2022/08/19 00:41:50;;;;;;;38.63;34.97;;;19.40;99.90;;;;;;5030839;28;20188;-76
2022/08/19 00:44:26;;;;;;;37.40;33.78;;;19.40;99.90;;;;;;5045204;28;20206;-76
2022/08/19 00:46:54;;;;;;;32.08;29.10;;;19.40;99.90;;;;;;5038589;28;20216;-77
2022/08/19 00:49:35;;;;;;;31.00;28.10;;;19.30;99.90;;;;;;5034454;28;20283;-77
2022/08/19 00:52:18;;;;;;;31.83;28.92;;;19.30;99.90;;;;;;5030148;28;20543;-76
2022/08/19 00:54:46;;;;;;;42.95;38.40;;;19.40;99.90;;;;;;5039415;28;20664;-77
2022/08/19 00:57:17;;;;;;;36.15;32.75;;;19.50;99.90;;;;;;5027032;28;20220;-77
2022/08/19 00:59:47;;;;;;;31.40;28.70;;;19.50;99.90;;;;;;5026477;28;20185;-78
2022/08/19 01:02:15;;;;;;;31.83;28.90;;;19.50;99.90;;;;;;5037444;28;20227;-76
2022/08/19 01:04:40;;;;;;;37.20;33.42;;;19.50;99.90;;;;;;5036620;28;20181;-78
2022/08/19 01:07:07;;;;;;;39.08;35.40;;;19.70;99.90;;;;;;5033804;28;20218;-78
2022/08/19 01:09:33;;;;;;;33.53;30.60;;;19.70;99.90;;;;;;5034451;28;20208;-78
2022/08/19 01:11:58;;;;;;;37.13;33.55;;;19.70;99.90;;;;;;5033081;28;20221;-78
2022/08/19 01:14:25;;;;;;;35.67;32.20;;;19.80;99.90;;;;;;5034757;28;20181;-78
2022/08/19 01:16:54;;;;;;;30.42;27.73;;;19.80;99.90;;;;;;5034130;28;20279;-78
2022/08/19 01:19:19;;;;;;;35.45;32.05;;;19.70;99.90;;;;;;5037026;28;20195;-77
2022/08/19 01:21:59;;;;;;;30.10;27.58;;;19.80;99.90;;;;;;5037564;28;20243;-77
2022/08/19 01:24:24;;;;;;;35.40;32.08;;;19.80;99.90;;;;;;5046112;28;20179;-78
2022/08/19 01:26:50;;;;;;;29.90;27.20;;;19.90;99.90;;;;;;5026619;28;20320;-78
2022/08/19 01:29:15;;;;;;;27.85;25.15;;;19.80;99.90;;;;;;5025077;28;20283;-78
2022/08/19 01:31:41;;;;;;;28.45;25.90;;;19.70;99.90;;;;;;5028144;28;20180;-77
2022/08/19 01:34:07;;;;;;;36.70;33.30;;;19.70;99.90;;;;;;5027653;28;20184;-76
2022/08/19 01:36:38;;;;;;;35.42;31.98;;;19.90;99.90;;;;;;5030354;28;20196;-77
2022/08/19 01:39:07;;;;;;;37.83;34.03;;;20.00;99.90;;;;;;5026982;28;20268;-77
2022/08/19 01:41:33;;;;;;;39.22;35.40;;;20.00;99.90;;;;;;5028268;28;20587;-77
2022/08/19 01:44:00;;;;;;;39.28;35.58;;;20.00;99.90;;;;;;5027463;28;20187;-78
2022/08/19 01:46:26;;;;;;;32.47;29.65;;;20.00;99.90;;;;;;5028849;28;20200;-77
2022/08/19 01:48:52;;;;;;;31.13;28.42;;;19.70;99.90;;;;;;5032477;28;20587;-76
2022/08/19 01:51:17;;;;;;;28.45;26.00;;;19.70;99.90;;;;;;5027282;28;20182;-78
2022/08/19 01:53:48;;;;;;;27.50;25.10;;;19.60;99.90;;;;;;5033279;28;20184;-78
2022/08/19 01:56:14;;;;;;;27.00;24.70;;;19.50;99.90;;;;;;5030572;28;20176;-77
2022/08/19 01:58:46;;;;;;;26.05;23.90;;;19.50;99.90;;;;;;5027133;28;20173;-77
2022/08/19 02:01:12;;;;;;;26.58;24.38;;;19.50;99.90;;;;;;5035299;28;20177;-77
2022/08/19 02:03:38;;;;;;;24.88;22.75;;;19.50;99.90;;;;;;5041235;28;20181;-76
2022/08/19 02:06:05;;;;;;;28.92;26.40;;;19.50;99.90;;;;;;5045927;28;20211;-76
2022/08/19 02:08:32;;;;;;;34.28;31.10;;;19.60;99.90;;;;;;5040956;28;20246;-77
2022/08/19 02:10:58;;;;;;;35.85;32.28;;;19.60;99.90;;;;;;5035346;28;20176;-76
2022/08/19 02:13:25;;;;;;;30.77;28.08;;;19.70;99.90;;;;;;5040490;28;20733;-76
2022/08/19 02:15:50;;;;;;;30.05;27.40;;;19.60;99.90;;;;;;5041008;28;20215;-76
2022/08/19 02:18:16;;;;;;;29.30;26.63;;;19.70;99.90;;;;;;5036415;28;20223;-76
2022/08/19 02:20:43;;;;;;;28.67;26.10;;;19.70;99.90;;;;;;5041683;28;20172;-77
2022/08/19 02:23:09;;;;;;;35.42;31.90;;;19.70;99.90;;;;;;5043988;28;20546;-77
2022/08/19 02:25:35;;;;;;;40.13;36.00;;;19.70;99.90;;;;;;5044729;28;20176;-77
2022/08/19 02:28:01;;;;;;;37.65;33.97;;;19.80;99.90;;;;;;5039817;28;20199;-76
2022/08/19 02:30:27;;;;;;;35.08;31.98;;;19.80;99.90;;;;;;5039697;28;20176;-76
2022/08/19 02:32:53;;;;;;;40.53;36.42;;;19.80;99.90;;;;;;5044143;28;20581;-77
2022/08/19 02:35:19;;;;;;;39.95;36.13;;;19.80;99.90;;;;;;5044850;28;20168;-77
2022/08/19 02:40:34;;;;;;;39.78;35.90;;;19.80;99.90;;;;;;5029396;28;20310;-76
2022/08/19 02:43:00;;;;;;;33.88;30.88;;;19.80;99.90;;;;;;5029342;28;20205;-76
2022/08/19 02:45:26;;;;;;;29.48;26.85;;;19.70;99.90;;;;;;5032261;28;20169;-76
2022/08/19 02:47:52;;;;;;;32.58;29.50;;;19.70;99.90;;;;;;5030978;28;20212;-76
2022/08/19 02:50:18;;;;;;;40.08;36.08;;;19.80;99.90;;;;;;5031473;28;20201;-76
2022/08/19 02:52:45;;;;;;;39.63;35.78;;;19.80;99.90;;;;;;5040076;28;20257;-76
2022/08/19 02:55:10;;;;;;;37.28;33.55;;;19.80;99.90;;;;;;5025477;28;20187;-76
2022/08/19 02:57:36;;;;;;;36.30;32.90;;;19.80;99.90;;;;;;5047290;28;20190;-76
2022/08/19 03:00:08;;;;;;;36.75;33.03;;;19.80;99.90;;;;;;5040326;28;20177;-75
2022/08/19 03:02:34;;;;;;;36.33;32.72;;;19.80;99.90;;;;;;5036425;28;20173;-76
2022/08/19 03:05:02;;;;;;;36.88;33.40;;;19.70;99.90;;;;;;5045783;28;20176;-75
2022/08/19 03:07:27;;;;;;;35.50;32.08;;;19.80;99.90;;;;;;5026481;28;20211;-75
2022/08/19 03:09:53;;;;;;;32.80;29.70;;;19.80;99.90;;;;;;5032422;28;20295;-75
2022/08/19 03:12:18;;;;;;;32.00;29.00;;;19.70;99.90;;;;;;5032222;28;20188;-77
2022/08/19 03:14:46;;;;;;;30.17;27.15;;;19.70;99.90;;;;;;5037358;28;20552;-76
2022/08/19 03:17:12;;;;;;;30.98;28.10;;;19.70;99.90;;;;;;5041763;28;20188;-77
2022/08/19 03:19:38;;;;;;;31.25;28.42;;;19.70;99.90;;;;;;5047790;28;20172;-76
2022/08/19 03:22:04;;;;;;;29.52;26.83;;;19.70;99.90;;;;;;5040274;28;20192;-76
2022/08/19 03:24:30;;;;;;;32.47;29.35;;;19.80;99.90;;;;;;5029771;28;20173;-76
2022/08/19 03:26:57;;;;;;;31.95;28.92;;;19.80;99.90;;;;;;5044486;28;20682;-76
2022/08/19 03:29:23;;;;;;;27.90;25.13;;;19.80;99.90;;;;;;5039022;28;20205;-76
2022/08/19 03:31:51;;;;;;;25.10;22.80;;;19.80;99.90;;;;;;5046488;28;20184;-78
2022/08/19 03:34:20;;;;;;;26.60;23.73;;;19.80;99.90;;;;;;5039394;28;20177;-75
2022/08/19 03:36:47;;;;;;;26.83;24.63;;;19.80;99.90;;;;;;5047575;28;20230;-76
2022/08/19 03:39:13;;;;;;;24.02;21.85;;;19.80;99.90;;;;;;5039337;28;20180;-76
2022/08/19 03:41:42;;;;;;;24.92;22.77;;;19.80;99.90;;;;;;5032895;28;20186;-75
2022/08/19 03:44:08;;;;;;;25.52;23.40;;;19.80;99.90;;;;;;5044308;28;20184;-75
2022/08/19 03:46:35;;;;;;;24.80;22.80;;;19.80;99.90;;;;;;5039658;28;20188;-75
2022/08/19 03:49:07;;;;;;;20.52;18.75;;;19.80;99.90;;;;;;5046046;28;20714;-76
2022/08/19 03:51:35;;;;;;;20.80;19.10;;;19.80;99.90;;;;;;5030194;28;20168;-76
2022/08/19 03:54:05;;;;;;;24.83;22.58;;;19.80;99.90;;;;;;5030393;28;20544;-76
2022/08/19 03:56:34;;;;;;;23.95;21.70;;;19.90;99.90;;;;;;5041086;28;20200;-76
2022/08/19 03:59:00;;;;;;;25.98;23.52;;;19.90;99.90;;;;;;5030643;28;20510;-76
2022/08/19 04:01:28;;;;;;;26.23;23.88;;;19.90;99.90;;;;;;5042806;28;20549;-76
2022/08/19 04:03:57;;;;;;;21.23;19.52;;;19.90;99.90;;;;;;5041866;28;20188;-76
2022/08/19 04:06:29;;;;;;;23.60;21.48;;;19.90;99.90;;;;;;5042855;28;20570;-76
2022/08/19 04:08:58;;;;;;;21.55;19.63;;;19.90;99.90;;;;;;5036020;28;20577;-76
2022/08/19 04:11:26;;;;;;;22.63;20.63;;;20.00;99.90;;;;;;5040847;28;20176;-76
2022/08/19 04:13:53;;;;;;;23.92;21.83;;;19.90;99.90;;;;;;5038699;28;20196;-76
2022/08/19 04:16:20;;;;;;;22.48;20.45;;;20.00;99.90;;;;;;5043931;28;20207;-75
2022/08/19 04:18:46;;;;;;;24.10;21.88;;;19.90;99.90;;;;;;5038201;28;20183;-76
2022/08/19 04:21:21;;;;;;;21.42;19.67;;;20.00;99.90;;;;;;5037437;28;20176;-77
2022/08/19 04:23:47;;;;;;;20.00;18.23;;;20.00;99.90;;;;;;5042246;28;20187;-75
2022/08/19 04:26:20;;;;;;;24.08;21.90;;;20.00;99.90;;;;;;5037577;28;20179;-74
2022/08/19 04:28:46;;;;;;;25.08;22.73;;;20.00;99.90;;;;;;5040418;28;20196;-74
2022/08/19 04:31:17;;;;;;;21.48;19.67;;;20.10;99.90;;;;;;5046105;28;20530;-75
2022/08/19 04:33:43;;;;;;;22.00;19.98;;;20.00;99.90;;;;;;5045766;28;20176;-75
2022/08/19 04:36:19;;;;;;;19.92;18.23;;;20.10;99.90;;;;;;5036840;28;20199;-77
2022/08/19 04:38:44;;;;;;;22.25;20.10;;;20.10;99.90;;;;;;5026493;28;20205;-77
2022/08/19 04:43:54;;;;;;;22.67;20.77;;;20.10;99.90;;;;;;5028782;28;20892;-77
2022/08/19 04:46:20;;;;;;;22.42;20.45;;;20.20;99.90;;;;;;5030083;28;20266;-77
2022/08/19 04:48:46;;;;;;;17.35;15.95;;;20.10;99.90;;;;;;5023256;28;20275;-79
2022/08/19 04:51:13;;;;;;;17.23;15.82;;;20.00;99.90;;;;;;5018631;28;20223;-77
2022/08/19 04:53:40;;;;;;;17.27;15.88;;;20.00;99.90;;;;;;5031457;28;20197;-78
2022/08/19 04:56:12;;;;;;;15.55;14.25;;;20.10;99.90;;;;;;5017682;28;20176;-77
2022/08/19 04:58:42;;;;;;;20.33;18.33;;;20.10;99.90;;;;;;5016300;28;20181;-77
2022/08/19 05:01:17;;;;;;;21.38;19.33;;;20.30;99.90;;;;;;5017565;28;20532;-78
2022/08/19 05:03:43;;;;;;;19.83;18.13;;;20.30;99.90;;;;;;5039920;28;20180;-77
2022/08/19 05:06:19;;;;;;;17.67;16.13;;;20.20;99.90;;;;;;5045243;28;20691;-77
2022/08/19 05:08:45;;;;;;;18.08;16.50;;;20.20;99.90;;;;;;5021739;28;20209;-78
2022/08/19 05:11:15;;;;;;;16.75;15.45;;;20.20;99.90;;;;;;5030543;28;20627;-78
2022/08/19 05:13:48;;;;;;;19.05;17.35;;;20.20;99.90;;;;;;5033086;28;20344;-77
2022/08/19 05:16:16;;;;;;;18.80;17.15;;;20.20;99.90;;;;;;5025936;28;20188;-78
2022/08/19 05:24:11;;;;;;;17.30;15.90;;;20.00;99.90;;;;;;5037340;28;20661;-76
2022/08/19 05:26:38;;;;;;;15.93;14.63;;;20.20;99.90;;;;;;5025569;28;20208;-78
2022/08/19 05:29:03;;;;;;;17.95;16.35;;;20.20;99.90;;;;;;5033708;28;20227;-77
2022/08/19 05:31:30;;;;;;;14.98;13.77;;;20.20;99.90;;;;;;5034286;28;20651;-77
2022/08/19 05:33:58;;;;;;;14.70;13.50;;;20.10;99.90;;;;;;5041037;28;20180;-77
2022/08/19 05:36:27;;;;;;;14.77;13.52;;;20.10;99.90;;;;;;5038830;28;20717;-77
2022/08/19 05:38:53;;;;;;;14.88;13.57;;;20.10;99.90;;;;;;5040948;28;20247;-77
2022/08/19 05:41:20;;;;;;;15.10;13.80;;;20.20;99.90;;;;;;5043722;28;20196;-77
2022/08/19 05:43:46;;;;;;;15.32;14.02;;;20.10;99.90;;;;;;5024872;28;20185;-77
2022/08/19 05:46:19;;;;;;;14.57;13.40;;;20.10;99.90;;;;;;5027454;28;20240;-77
2022/08/19 05:48:45;;;;;;;14.77;13.55;;;20.20;99.90;;;;;;5032976;28;20201;-77
2022/08/19 05:51:10;;;;;;;15.65;14.32;;;20.20;99.90;;;;;;5032431;28;20180;-76
2022/08/19 05:53:37;;;;;;;14.10;13.07;;;20.30;99.90;;;;;;5029812;28;20181;-77
2022/08/19 05:56:12;;;;;;;15.73;14.02;;;20.20;99.90;;;;;;5042666;28;20238;-77
2022/08/19 05:58:38;;;;;;;13.98;12.98;;;20.30;99.90;;;;;;5038442;28;20175;-78
2022/08/19 06:01:09;;;;;;;15.75;14.45;;;20.40;99.90;;;;;;5038370;28;20216;-78
2022/08/19 06:03:37;;;;;;;14.73;13.65;;;20.40;99.90;;;;;;5033267;28;20208;-78
2022/08/19 06:06:03;;;;;;;14.18;13.07;;;20.40;99.90;;;;;;5034380;28;20180;-76
2022/08/19 06:08:29;;;;;;;15.07;13.98;;;20.50;99.90;;;;;;5041201;28;20200;-75
2022/08/19 06:10:55;;;;;;;14.52;13.32;;;20.60;99.90;;;;;;5029477;28;20230;-78
2022/08/19 06:13:22;;;;;;;16.10;14.60;;;20.80;99.90;;;;;;5028799;28;20188;-77
2022/08/19 06:15:48;;;;;;;16.98;15.48;;;20.90;99.90;;;;;;5033394;28;20181;-75
2022/08/19 06:18:15;;;;;;;14.80;13.50;;;20.90;99.90;;;;;;5027943;28;20200;-74
2022/08/19 06:20:41;;;;;;;13.73;12.60;;;21.00;99.90;;;;;;5034023;28;20220;-75
2022/08/19 06:23:08;;;;;;;15.55;14.20;;;20.90;99.90;;;;;;5045147;28;20307;-77
2022/08/19 06:25:34;;;;;;;15.23;14.07;;;21.00;99.90;;;;;;5036167;28;20188;-76
2022/08/19 06:28:00;;;;;;;14.73;13.52;;;20.90;99.90;;;;;;5031178;28;20208;-76
2022/08/19 06:30:25;;;;;;;15.02;13.82;;;20.90;99.90;;;;;;5018932;28;20201;-76
2022/08/19 06:32:51;;;;;;;14.88;13.48;;;20.90;99.90;;;;;;5017213;28;20185;-76
2022/08/19 06:35:17;;;;;;;13.20;12.20;;;20.80;99.90;;;;;;5029866;28;20194;-76
2022/08/19 06:37:42;;;;;;;15.70;14.18;;;20.70;99.90;;;;;;5023001;28;20676;-76
2022/08/19 06:40:10;;;;;;;14.23;13.02;;;20.60;99.90;;;;;;5023908;28;20251;-76
2022/08/19 06:42:38;;;;;;;16.08;14.77;;;20.50;99.90;;;;;;5034813;28;20169;-76
2022/08/19 06:45:05;;;;;;;14.82;13.52;;;20.50;99.90;;;;;;5046895;28;20194;-76
2022/08/19 06:47:32;;;;;;;15.25;13.98;;;20.50;99.90;;;;;;5028235;28;20296;-75
2022/08/19 06:50:01;;;;;;;15.45;14.23;;;20.40;99.90;;;;;;5043553;28;20195;-75
2022/08/19 06:52:27;;;;;;;16.83;15.43;;;20.50;99.90;;;;;;5042105;28;20545;-76
2022/08/19 06:54:55;;;;;;;15.10;13.90;;;20.50;99.90;;;;;;5023216;28;20271;-76
2022/08/19 06:57:22;;;;;;;15.45;14.15;;;20.50;99.90;;;;;;5023929;28;20200;-76
2022/08/19 06:59:47;;;;;;;16.73;15.13;;;20.40;99.90;;;;;;5016778;28;20177;-76
2022/08/19 07:02:13;;;;;;;16.42;14.93;;;20.30;99.90;;;;;;5016300;28;20526;-76
2022/08/19 07:04:39;;;;;;;15.15;13.95;;;20.30;99.90;;;;;;5031468;28;20242;-76
2022/08/19 07:07:12;;;;;;;15.45;14.23;;;20.30;99.90;;;;;;5046337;28;20192;-76
2022/08/19 07:09:40;;;;;;;16.30;14.90;;;20.30;99.90;;;;;;5022502;28;20205;-77
2022/08/19 07:12:07;;;;;;;14.27;13.05;;;20.40;99.90;;;;;;5038669;28;20187;-77
2022/08/19 07:14:37;;;;;;;16.20;14.90;;;20.30;99.90;;;;;;5042672;28;20770;-76
2022/08/19 07:17:05;;;;;;;15.85;14.48;;;20.30;99.90;;;;;;5043699;28;20204;-77
2022/08/19 07:19:31;;;;;;;17.30;15.80;;;20.30;99.90;;;;;;5041325;28;20172;-77
2022/08/19 07:21:59;;;;;;;16.92;15.52;;;20.30;99.90;;;;;;5039285;28;20172;-76
2022/08/19 07:24:26;;;;;;;15.73;14.30;;;20.20;99.90;;;;;;5023658;28;20212;-77
2022/08/19 07:26:53;;;;;;;16.35;14.95;;;20.20;99.90;;;;;;5035281;28;20197;-77
2022/08/19 07:29:22;;;;;;;16.10;14.50;;;20.20;99.90;;;;;;5028937;28;20212;-77
2022/08/19 07:31:52;;;;;;;15.20;13.80;;;20.30;99.90;;;;;;5025481;28;20185;-76
2022/08/19 07:34:18;;;;;;;15.68;14.48;;;20.20;99.90;;;;;;5020669;28;20184;-76
2022/08/19 07:36:45;;;;;;;15.45;14.18;;;20.30;99.90;;;;;;5026163;28;20200;-78
2022/08/19 07:39:15;;;;;;;16.35;15.05;;;20.40;99.90;;;;;;5019951;28;20226;-78
2022/08/19 07:41:41;;;;;;;16.13;14.68;;;20.40;99.90;;;;;;5018311;28;20188;-76
2022/08/19 07:44:08;;;;;;;15.63;14.32;;;20.50;99.90;;;;;;5027780;28;20214;-76
2022/08/19 07:46:37;;;;;;;16.63;15.05;;;20.60;99.90;;;;;;5037234;28;20200;-76
2022/08/19 07:49:04;;;;;;;15.65;14.43;;;20.70;99.90;;;;;;5035115;28;20196;-76
2022/08/19 07:51:30;;;;;;;14.95;13.63;;;20.90;99.90;;;;;;5032820;28;20539;-76
2022/08/19 07:53:56;;;;;;;15.20;14.00;;;20.90;99.90;;;;;;5038765;28;20164;-77
2022/08/19 07:56:22;;;;;;;15.52;14.13;;;21.00;99.90;;;;;;5040412;28;20705;-76
2022/08/19 07:58:49;;;;;;;14.93;13.73;;;21.30;99.90;;;;;;5042674;28;20193;-76
2022/08/19 08:01:22;;;;;;;15.88;14.45;;;21.40;99.90;;;;;;5032725;28;20215;-77
2022/08/19 08:09:24;;;;;;;15.18;14.00;;;22.00;99.90;;;;;;5039531;28;20355;-76
2022/08/19 08:11:59;;;;;;;15.15;13.63;;;22.20;99.90;;;;;;5028845;28;20629;-76
2022/08/19 08:14:32;;;;;;;14.93;13.77;;;22.40;99.90;;;;;;5035341;28;20176;-77
2022/08/19 08:16:59;;;;;;;14.25;12.95;;;22.60;99.90;;;;;;5024485;28;20212;-77
2022/08/19 08:19:26;;;;;;;13.40;12.35;;;22.90;99.90;;;;;;5021284;28;20527;-77
2022/08/19 08:21:55;;;;;;;14.35;13.05;;;23.10;99.90;;;;;;5022950;28;20213;-77
2022/08/19 08:24:21;;;;;;;14.13;13.02;;;23.10;99.90;;;;;;5016251;28;20255;-77
2022/08/19 08:26:47;;;;;;;13.23;12.10;;;23.20;99.90;;;;;;5025975;28;20229;-76
2022/08/19 08:29:13;;;;;;;14.27;13.05;;;23.30;99.90;;;;;;5023288;28;20537;-75
2022/08/19 08:31:40;;;;;;;13.40;12.23;;;23.40;99.90;;;;;;5032844;28;20180;-74
2022/08/19 08:34:07;;;;;;;12.27;11.30;;;23.40;99.90;;;;;;5030727;28;20180;-73
2022/08/19 08:36:35;;;;;;;13.40;12.30;;;23.60;99.90;;;;;;5024379;28;20254;-75
2022/08/19 08:39:01;;;;;;;12.68;11.63;;;24.10;99.90;;;;;;5031464;28;20280;-75
2022/08/19 08:42:01;;;;;;;13.00;11.68;;;24.80;99.90;;;;;;5031881;28;20267;-76
2022/08/19 08:44:36;;;;;;;12.70;11.70;;;25.60;99.90;;;;;;5027975;28;20185;-73
2022/08/19 08:47:06;;;;;;;12.45;11.40;;;26.10;99.90;;;;;;5018097;28;20522;-73
2022/08/19 08:49:44;;;;;;;11.77;10.98;;;26.50;99.90;;;;;;5038842;28;20188;-73
2022/08/19 08:52:25;;;;;;;12.43;11.43;;;26.50;99.90;;;;;;5025538;28;20185;-75
2022/08/19 08:54:55;;;;;;;12.07;11.07;;;26.40;99.90;;;;;;5021382;28;20184;-76
2022/08/19 08:57:31;;;;;;;11.52;10.63;;;25.90;99.90;;;;;;5035033;28;20578;-75
2022/08/19 09:00:00;;;;;;;10.65;9.85;;;25.90;99.90;;;;;;5044422;28;20254;-75
2022/08/19 09:02:26;;;;;;;11.93;10.77;;;25.80;99.90;;;;;;5037255;28;20549;-75
2022/08/19 09:04:53;;;;;;;10.68;9.82;;;26.10;99.90;;;;;;5028723;28;20248;-75
2022/08/19 09:07:49;;;;;;;10.48;9.68;;;26.50;99.90;;;;;;5026603;28;20570;-76
2022/08/19 09:10:15;;;;;;;10.65;9.77;;;26.70;99.90;;;;;;5043477;28;20180;-76
2022/08/19 09:13:11;;;;;;;10.55;9.52;;;26.90;99.90;;;;;;5052762;28;20191;-74
2022/08/19 09:15:44;;;;;;;9.43;8.73;;;26.80;99.90;;;;;;5047711;28;20195;-74
2022/08/19 09:18:09;;;;;;;10.40;9.27;;;26.60;99.90;;;;;;5042354;28;20201;-73
2022/08/19 09:20:35;;;;;;;10.98;10.07;;;26.40;99.90;;;;;;5042538;28;20170;-73
2022/08/19 09:23:01;;;;;;;10.88;9.88;;;26.10;99.90;;;;;;5039701;28;20204;-73
2022/08/19 09:25:27;;;;;;;11.10;10.20;;;25.90;99.90;;;;;;5043499;28;20178;-75
2022/08/19 09:27:55;;;;;;;10.15;9.45;;;25.70;99.90;;;;;;5037932;28;21923;-75
2022/08/19 09:30:24;;;;;;;10.95;10.07;;;25.50;99.90;;;;;;5046055;28;20202;-76
2022/08/19 09:32:52;;;;;;;11.73;10.77;;;25.40;99.90;;;;;;5043005;28;20283;-75
2022/08/19 09:35:21;;;;;;;12.63;11.60;;;25.20;99.90;;;;;;5036839;28;20165;-73
2022/08/19 09:37:48;;;;;;;11.38;10.48;;;24.90;99.90;;;;;;5046226;28;20608;-75
2022/08/19 09:40:14;;;;;;;12.05;11.00;;;24.50;99.90;;;;;;5038880;28;20532;-75
2022/08/19 09:42:40;;;;;;;11.27;10.43;;;24.30;99.90;;;;;;5038752;28;20179;-71
2022/08/19 09:45:06;;;;;;;11.05;10.20;;;24.10;99.90;;;;;;5028427;28;20172;-72
2022/08/19 09:47:37;;;;;;;11.38;10.45;;;23.90;99.90;;;;;;5038867;28;20224;-71
2022/08/19 09:50:08;;;;;;;11.10;10.13;;;24.00;99.90;;;;;;5022348;28;20287;-74
2022/08/19 09:52:36;;;;;;;11.43;10.40;;;24.00;99.90;;;;;;5027291;28;20238;-72
2022/08/19 09:55:03;;;;;;;10.82;9.98;;;24.10;99.90;;;;;;5023049;28;20226;-71
2022/08/19 09:57:29;;;;;;;11.23;10.23;;;24.30;99.90;;;;;;5019653;28;20636;-71
2022/08/19 09:59:54;;;;;;;10.75;9.80;;;24.30;99.90;;;;;;5019427;28;20226;-71
2022/08/19 10:02:20;;;;;;;11.05;10.07;;;24.50;99.90;;;;;;5021383;28;20188;-68
2022/08/19 10:07:30;;;;;;;10.02;9.15;;;24.40;99.90;;;;;;5022687;28;20573;-70
2022/08/19 10:09:56;;;;;;;9.20;8.48;;;24.20;99.90;;;;;;5030416;28;20211;-73
2022/08/19 10:12:22;;;;;;;9.43;8.73;;;24.30;99.90;;;;;;5037334;28;20199;-73
2022/08/19 10:14:48;;;;;;;9.55;8.77;;;24.10;99.90;;;;;;5046430;28;20172;-70
2022/08/19 10:17:14;;;;;;;8.88;8.20;;;24.00;99.90;;;;;;5041724;28;20253;-69
2022/08/19 10:19:40;;;;;;;13.65;9.15;;;24.00;99.90;;;;;;5032388;28;20238;-71
2022/08/19 10:22:06;;;;;;;9.85;9.05;;;24.00;99.90;;;;;;5032278;28;20689;-73
2022/08/19 10:24:34;;;;;;;10.45;9.55;;;24.00;99.90;;;;;;5038022;28;20652;-73
2022/08/19 10:27:03;;;;;;;10.02;9.32;;;23.80;99.90;;;;;;5022730;28;20201;-73
2022/08/19 10:29:30;;;;;;;8.77;8.18;;;24.00;99.90;;;;;;5029505;28;20192;-73
2022/08/19 10:31:57;;;;;;;8.65;8.00;;;24.40;99.90;;;;;;5042082;28;20519;-73
2022/08/19 10:34:23;;;;;;;8.90;8.25;;;24.80;99.90;;;;;;5033523;28;20182;-73
2022/08/19 10:36:49;;;;;;;7.93;7.32;;;25.30;99.90;;;;;;5041252;28;20579;-75
2022/08/19 10:39:15;;;;;;;9.20;8.50;;;25.60;99.90;;;;;;5027414;28;20195;-74
2022/08/19 10:41:43;;;;;;;8.13;7.55;;;26.00;99.90;;;;;;5040608;28;20184;-74
2022/08/19 10:44:10;;;;;;;7.32;6.82;;;26.00;99.90;;;;;;5041038;28;20199;-74
2022/08/19 10:46:41;;;;;;;8.70;8.10;;;26.00;99.90;;;;;;5040409;28;20743;-73
2022/08/19 10:49:08;;;;;;;10.00;7.85;;;26.10;99.90;;;;;;5040935;28;20204;-72
2022/08/19 10:54:18;;;;;;;8.13;7.43;;;25.90;99.90;;;;;;5019488;28;20191;-72
2022/08/19 10:56:53;;;;;;;8.75;8.05;;;25.80;99.90;;;;;;5023037;28;20204;-72
2022/08/19 10:59:27;;;;;;;9.20;8.50;;;25.80;99.90;;;;;;5025817;28;20185;-72
2022/08/19 11:01:53;;;;;;;8.30;7.70;;;25.80;99.90;;;;;;5024794;28;20189;-72
2022/08/19 11:04:19;;;;;;;9.63;8.77;;;25.80;99.90;;;;;;5020033;28;20192;-72
2022/08/19 11:06:47;;;;;;;9.40;8.55;;;25.80;99.90;;;;;;5023121;28;20212;-71
2022/08/19 11:09:37;;;;;;;9.32;8.52;;;25.70;99.90;;;;;;5020000;28;20238;-71
2022/08/19 11:12:03;;;;;;;9.23;8.52;;;25.90;99.90;;;;;;5028953;28;20212;-72
2022/08/19 11:14:32;;;;;;;9.07;8.45;;;25.80;99.90;;;;;;5019767;28;20246;-73
2022/08/19 11:16:58;;;;;;;9.70;9.00;;;25.90;99.90;;;;;;5019067;28;20262;-72
2022/08/19 11:19:23;;;;;;;8.98;8.38;;;25.80;99.90;;;;;;5022245;28;20197;-71
2022/08/19 11:21:51;;;;;;;9.63;8.88;;;25.70;99.90;;;;;;5016786;28;20189;-73
2022/08/19 11:24:22;;;;;;;8.65;7.95;;;25.50;99.90;;;;;;5017241;28;20188;-72
2022/08/19 11:26:50;;;;;;;9.73;8.82;;;25.50;99.90;;;;;;5015289;28;20255;-72
2022/08/19 11:29:18;;;;;;;9.88;9.05;;;25.40;99.90;;;;;;5019078;28;20218;-72
2022/08/19 11:31:46;;;;;;;10.15;9.30;;;25.00;99.90;;;;;;5017067;28;20265;-73
2022/08/19 11:34:16;;;;;;;10.70;9.90;;;24.70;99.90;;;;;;5018854;28;20205;-73
2022/08/19 11:36:45;;;;;;;12.23;11.13;;;24.50;99.90;;;;;;5030207;28;20189;-74
2022/08/19 11:39:13;;;;;;;13.15;11.95;;;23.90;99.90;;;;;;5028964;28;20176;-74
2022/08/19 11:41:40;;;;;;;13.40;12.30;;;23.30;99.90;;;;;;5025438;28;20181;-74
2022/08/19 11:44:07;;;;;;;12.68;11.57;;;23.00;99.90;;;;;;5022384;28;20272;-76
2022/08/19 11:46:34;;;;;;;14.15;12.88;;;22.50;99.90;;;;;;5020842;28;20588;-76
2022/08/19 11:49:00;;;;;;;15.45;14.13;;;22.20;99.90;;;;;;5017743;28;20196;-75
2022/08/19 11:51:27;;;;;;;16.05;14.57;;;21.80;99.90;;;;;;5018086;28;20573;-77
2022/08/19 11:53:55;;;;;;;17.48;15.82;;;21.60;99.90;;;;;;5022786;28;20245;-75
2022/08/19 11:56:21;;;;;;;18.42;16.55;;;21.40;99.90;;;;;;5026921;28;20626;-74
2022/08/19 11:58:47;;;;;;;18.60;16.88;;;21.20;99.90;;;;;;5018140;28;20187;-74
2022/08/19 12:01:16;;;;;;;19.27;17.35;;;21.20;99.90;;;;;;5019879;28;20503;-74
2022/08/19 12:03:43;;;;;;;18.15;16.65;;;21.00;99.90;;;;;;5017404;28;20208;-74
2022/08/19 12:06:15;;;;;;;20.90;19.00;;;20.80;99.90;;;;;;5028252;28;20655;-74
2022/08/19 12:08:42;;;;;;;20.20;18.20;;;20.70;99.90;;;;;;5028552;28;20248;-75
2022/08/19 12:11:09;;;;;;;20.00;18.30;;;20.70;99.90;;;;;;5012645;28;20197;-73
2022/08/19 12:13:35;;;;;;;18.33;16.73;;;20.50;99.90;;;;;;5011362;28;20251;-74
2022/08/19 12:16:08;;;;;;;19.00;17.30;;;20.40;99.90;;;;;;5010230;28;20184;-74
2022/08/19 12:18:33;;;;;;;15.98;14.68;;;20.30;99.90;;;;;;5036594;28;20230;-73
2022/08/19 12:21:00;;;;;;;18.02;16.52;;;20.40;99.90;;;;;;5033347;28;20180;-72
2022/08/19 12:23:26;;;;;;;19.02;17.20;;;20.40;99.90;;;;;;5039658;28;20186;-73
2022/08/19 12:25:51;;;;;;;18.38;16.67;;;20.60;99.90;;;;;;5036812;28;20188;-75
2022/08/19 12:28:22;;;;;;;18.90;17.10;;;20.60;99.90;;;;;;5028609;28;20216;-76
2022/08/19 12:30:50;;;;;;;20.17;17.88;;;20.60;99.90;;;;;;5020743;28;20189;-76
2022/08/19 12:33:17;;;;;;;17.45;15.77;;;20.70;99.90;;;;;;5031275;28;20172;-75
2022/08/19 12:35:46;;;;;;;19.08;17.05;;;20.80;99.90;;;;;;5031626;28;20177;-74
2022/08/19 12:38:12;;;;;;;17.20;15.60;;;21.00;99.90;;;;;;5022999;28;20271;-74
2022/08/19 12:40:39;;;;;;;16.25;14.75;;;21.20;99.90;;;;;;5021252;28;20177;-74
2022/08/19 12:43:06;;;;;;;16.02;14.63;;;21.50;99.90;;;;;;5019209;28;20260;-76
2022/08/19 12:45:32;;;;;;;15.85;14.40;;;21.60;99.90;;;;;;5023814;28;20243;-74
2022/08/19 12:47:58;;;;;;;16.15;14.68;;;21.90;99.90;;;;;;5019401;28;20694;-77
2022/08/19 12:50:23;;;;;;;16.27;14.93;;;22.20;99.90;;;;;;5023020;28;20232;-77
2022/08/19 12:52:49;;;;;;;16.95;15.48;;;22.70;99.90;;;;;;5022876;28;20623;-78